Terminal Aerodrome Forecast
Issued by NWS Duluth, MN

Home | Current Version | Previous Version | Text Only | Print | Product List | Glossary On
Versions: 1 2 3 4 5 6 7 8 9 10 11 12 13 14 15 16 17 18 19 20 21 22 23 24 25 26
000
FTUS43 KDLH 240930 AAC
TAFDLH
TAF AMD
KDLH 240930Z 2410/2506 VRB06KT P6SM VCTS SCT005 BKN040CB
      TEMPO 2410/2414 4SM -RA SCT004 BKN025
     FM241400 32006KT P6SM SCT060
     FM241900 32007KT P6SM VCTS SCT035CB BKN070
     FM250300 08007KT P6SM BKN025=

USA.gov is the U.S. government's official web portal to all federal, state and local government web resources and services.